Time;durP1;ratioP1;P1;durP2;ratioP2;P2;SDS_P1;SDS_P2;PMS_P1;PMS_P2;Temp;Humidity;BMP_temperature;BMP_pressure;BME280_temperature;BME280_humidity;BME280_pressure;Samples;Min_cycle;Max_cycle;Signal;HPM_P1;HPM_P2
2021/12/16 00:06:49;;;;;;;1.63;0.95;;;16.40;29.50;;;;;;5107339;27;20224;-63
2021/12/16 00:09:18;;;;;;;1.42;0.90;;;16.40;29.50;;;;;;5139663;27;20202;-63
2021/12/16 00:31:22;;;;;;;0.98;0.90;;;16.20;29.40;;;;;;5139595;27;20580;-63
2021/12/16 00:34:00;;;;;;;1.95;0.95;;;16.20;29.40;;;;;;5139451;27;20497;-63
2021/12/16 00:36:32;;;;;;;0.77;0.77;;;16.30;29.50;;;;;;5139602;27;20210;-63
2021/12/16 00:39:00;;;;;;;0.75;0.75;;;16.20;29.40;;;;;;5139889;27;20243;-63
2021/12/16 00:41:27;;;;;;;1.05;0.90;;;16.20;29.40;;;;;;5139788;27;20268;-62
2021/12/16 00:44:00;;;;;;;0.85;0.85;;;16.20;29.40;;;;;;5139646;27;20202;-63
2021/12/16 00:49:30;;;;;;;0.70;0.70;;;16.20;29.40;;;;;;5133625;27;20206;-62
2021/12/16 00:54:52;;;;;;;0.80;0.80;;;16.10;29.40;;;;;;5117868;28;20605;-63
2021/12/16 00:57:19;;;;;;;0.80;0.80;;;16.10;29.40;;;;;;5117814;28;20249;-62
2021/12/16 00:59:49;;;;;;;0.90;0.90;;;16.10;29.40;;;;;;5117758;28;20229;-62
2021/12/16 01:02:34;;;;;;;0.70;0.70;;;16.20;29.40;;;;;;5117810;28;20203;-63
2021/12/16 01:35:39;;;;;;;1.00;0.90;;;16.10;29.40;;;;;;5134543;28;20267;-63
2021/12/16 01:47:00;;;;;;;0.80;0.80;;;16.00;29.30;;;;;;5133858;28;20234;-64
2021/12/16 01:49:49;;;;;;;0.73;0.73;;;16.00;29.30;;;;;;5134342;27;20306;-63
2021/12/16 01:55:11;;;;;;;0.80;0.80;;;16.00;29.40;;;;;;5134574;28;20263;-63
2021/12/16 01:57:44;;;;;;;1.00;0.95;;;16.00;29.40;;;;;;5134518;27;20604;-63
2021/12/16 02:00:17;;;;;;;0.80;0.80;;;15.90;29.30;;;;;;5134867;27;20565;-63
2021/12/16 02:02:47;;;;;;;0.90;0.90;;;15.90;29.30;;;;;;5134600;27;20217;-64
2021/12/16 02:05:32;;;;;;;0.90;0.90;;;15.90;29.40;;;;;;5134464;27;20301;-63
2021/12/16 02:08:19;;;;;;;0.80;0.80;;;15.90;29.40;;;;;;5134262;27;20293;-63
2021/12/16 02:10:57;;;;;;;0.80;0.80;;;15.90;29.30;;;;;;5134391;27;20216;-62
2021/12/16 02:27:32;;;;;;;1.17;0.93;;;15.80;29.30;;;;;;5119810;28;20644;-63
2021/12/16 02:32:56;;;;;;;0.80;0.80;;;15.80;29.30;;;;;;5063173;27;20201;-63
2021/12/16 02:35:32;;;;;;;0.90;0.90;;;15.80;29.30;;;;;;5119994;28;20341;-63
2021/12/16 02:38:03;;;;;;;1.20;1.08;;;15.80;29.30;;;;;;5119635;28;20263;-62
2021/12/16 02:40:32;;;;;;;1.10;1.00;;;15.80;29.30;;;;;;5120024;28;20210;-63
2021/12/16 02:43:07;;;;;;;0.80;0.80;;;15.80;29.30;;;;;;5119845;28;20206;-63
2021/12/16 02:48:33;;;;;;;1.13;1.10;;;15.80;29.30;;;;;;5120003;28;20609;-62
2021/12/16 02:51:05;;;;;;;0.90;0.90;;;15.80;29.30;;;;;;5119681;28;20202;-63
2021/12/16 02:53:36;;;;;;;0.73;0.70;;;15.80;29.30;;;;;;5119982;28;20207;-63
2021/12/16 02:56:05;;;;;;;1.45;1.00;;;15.80;29.40;;;;;;5119932;28;20203;-62
2021/12/16 02:58:33;;;;;;;1.08;0.98;;;15.80;29.40;;;;;;5120247;28;20211;-63
2021/12/16 03:01:07;;;;;;;0.93;0.93;;;15.70;29.30;;;;;;5120312;28;20203;-63
2021/12/16 03:03:37;;;;;;;1.00;0.90;;;15.70;29.30;;;;;;5119601;28;20685;-63
2021/12/16 03:06:04;;;;;;;0.75;0.75;;;15.70;29.30;;;;;;5119706;28;20295;-63
2021/12/16 03:08:34;;;;;;;0.85;0.85;;;15.70;29.30;;;;;;5119432;28;20519;-63
2021/12/16 03:11:09;;;;;;;0.95;0.85;;;15.70;29.40;;;;;;5119941;28;20335;-63
2021/12/16 03:13:43;;;;;;;0.98;0.80;;;15.70;29.30;;;;;;5119864;28;20589;-63
2021/12/16 03:16:20;;;;;;;1.02;1.00;;;15.70;29.30;;;;;;5119992;28;20487;-63
2021/12/16 03:18:58;;;;;;;1.10;1.00;;;15.70;29.40;;;;;;5119735;28;20608;-63
2021/12/16 03:21:29;;;;;;;0.85;0.85;;;15.70;29.40;;;;;;5120058;28;20229;-63
2021/12/16 03:24:22;;;;;;;0.93;0.93;;;15.70;29.40;;;;;;5119539;28;20604;-63
2021/12/16 03:27:31;;;;;;;1.00;1.00;;;15.60;29.30;;;;;;5119186;28;20626;-63
2021/12/16 03:30:22;;;;;;;1.00;1.00;;;15.60;29.30;;;;;;5117327;28;20468;-64
2021/12/16 03:33:16;;;;;;;1.27;1.10;;;15.60;29.30;;;;;;5118727;28;20199;-63
2021/12/16 03:36:03;;;;;;;1.00;0.90;;;15.60;29.40;;;;;;5118696;28;20202;-62
2021/12/16 03:38:31;;;;;;;1.10;1.00;;;15.60;29.40;;;;;;5098523;28;20199;-63
2021/12/16 03:41:00;;;;;;;1.88;0.90;;;15.60;29.40;;;;;;5098606;28;20208;-63
2021/12/16 03:43:28;;;;;;;0.90;0.90;;;15.60;29.40;;;;;;5097636;28;20262;-63
2021/12/16 03:48:47;;;;;;;0.80;0.80;;;15.60;29.40;;;;;;5097651;28;20253;-63
2021/12/16 03:51:18;;;;;;;0.80;0.80;;;15.60;29.30;;;;;;5098368;28;20214;-63
2021/12/16 03:53:49;;;;;;;0.80;0.80;;;15.60;29.30;;;;;;5097314;28;20199;-62
2021/12/16 03:56:19;;;;;;;0.93;0.90;;;15.60;29.40;;;;;;5097693;28;20269;-63
2021/12/16 03:58:46;;;;;;;1.00;0.95;;;15.50;29.30;;;;;;5097363;28;20203;-63
2021/12/16 04:01:17;;;;;;;0.90;0.90;;;15.60;29.40;;;;;;5097450;28;20510;-62
2021/12/16 04:03:44;;;;;;;1.10;1.00;;;15.50;29.30;;;;;;5098200;28;20222;-62
2021/12/16 04:06:13;;;;;;;0.90;0.90;;;15.50;29.30;;;;;;5117034;28;20227;-63
2021/12/16 04:08:40;;;;;;;0.77;0.77;;;15.50;29.30;;;;;;5117885;28;20218;-64
2021/12/16 04:11:17;;;;;;;0.88;0.88;;;15.50;29.30;;;;;;5117910;28;20203;-63
2021/12/16 04:13:55;;;;;;;0.90;0.90;;;15.50;29.30;;;;;;5118791;28;20198;-63
2021/12/16 04:16:24;;;;;;;1.00;1.00;;;15.50;29.30;;;;;;5118840;28;20203;-63
2021/12/16 04:18:52;;;;;;;0.90;0.90;;;15.50;29.30;;;;;;5118308;28;20629;-63
2021/12/16 04:21:20;;;;;;;1.00;1.00;;;15.50;29.30;;;;;;5117880;28;20207;-63
2021/12/16 04:23:48;;;;;;;0.90;0.90;;;15.50;29.30;;;;;;5117358;28;20203;-63
2021/12/16 04:26:16;;;;;;;0.85;0.85;;;15.50;29.40;;;;;;5117485;28;20267;-63
2021/12/16 04:28:45;;;;;;;0.93;0.93;;;15.50;29.30;;;;;;5117267;28;20206;-63
2021/12/16 04:31:12;;;;;;;1.33;1.20;;;15.40;29.20;;;;;;5116814;28;20421;-63
2021/12/16 04:33:40;;;;;;;0.80;0.80;;;15.40;29.30;;;;;;5117439;28;20640;-63
2021/12/16 04:36:08;;;;;;;0.88;0.88;;;15.40;29.30;;;;;;5117359;28;20224;-63
2021/12/16 04:38:36;;;;;;;0.80;0.80;;;15.40;29.30;;;;;;5117599;28;20263;-63
2021/12/16 04:41:05;;;;;;;0.90;0.90;;;15.40;29.30;;;;;;5117602;28;20217;-64
2021/12/16 04:43:40;;;;;;;1.00;1.00;;;15.40;29.30;;;;;;5117926;28;20381;-63
2021/12/16 04:46:10;;;;;;;1.00;0.90;;;15.40;29.30;;;;;;5117483;28;20221;-63
2021/12/16 04:48:39;;;;;;;0.82;0.80;;;15.40;29.30;;;;;;5117683;28;20237;-66
2021/12/16 04:51:07;;;;;;;1.00;1.00;;;15.40;29.20;;;;;;5117413;28;20198;-63
2021/12/16 04:53:34;;;;;;;1.10;1.00;;;15.40;29.30;;;;;;5117491;28;20230;-63
2021/12/16 04:56:02;;;;;;;0.90;0.90;;;15.40;29.30;;;;;;5116657;28;20199;-64
2021/12/16 04:58:29;;;;;;;0.95;0.95;;;15.40;29.30;;;;;;5116631;28;20532;-63
2021/12/16 05:00:57;;;;;;;0.80;0.80;;;15.40;29.30;;;;;;5117136;28;20203;-63
2021/12/16 05:03:26;;;;;;;0.80;0.80;;;15.40;29.30;;;;;;5117518;28;20203;-64
2021/12/16 05:05:54;;;;;;;0.80;0.80;;;15.40;29.30;;;;;;5117416;28;20651;-62
2021/12/16 05:08:22;;;;;;;0.88;0.88;;;15.40;29.30;;;;;;5117162;28;20223;-63
2021/12/16 05:10:51;;;;;;;0.85;0.85;;;15.30;29.30;;;;;;5116806;28;20202;-63
2021/12/16 05:13:23;;;;;;;1.02;0.93;;;15.30;29.30;;;;;;5117646;28;20518;-63
2021/12/16 05:15:50;;;;;;;0.80;0.80;;;15.30;29.30;;;;;;5116832;28;20567;-63
2021/12/16 05:18:22;;;;;;;1.05;1.00;;;15.30;29.30;;;;;;5117056;28;20486;-63
2021/12/16 05:20:53;;;;;;;0.90;0.90;;;15.30;29.30;;;;;;5117296;28;20309;-62
2021/12/16 05:26:19;;;;;;;1.00;1.00;;;15.30;29.30;;;;;;5116776;28;20206;-63
2021/12/16 05:28:52;;;;;;;0.90;0.90;;;15.30;29.30;;;;;;5116395;28;20589;-63
2021/12/16 05:31:21;;;;;;;1.20;1.10;;;15.30;29.30;;;;;;5116197;28;20218;-63
2021/12/16 05:33:48;;;;;;;0.80;0.80;;;15.30;29.30;;;;;;5116052;28;20203;-63
2021/12/16 05:36:18;;;;;;;0.98;0.90;;;15.30;29.30;;;;;;5116043;28;20215;-63
2021/12/16 05:38:45;;;;;;;0.98;0.98;;;15.30;29.30;;;;;;5116228;28;20211;-63
2021/12/16 05:41:16;;;;;;;1.20;1.10;;;15.30;29.30;;;;;;5115049;28;20203;-63
2021/12/16 05:43:44;;;;;;;0.93;0.93;;;15.30;29.30;;;;;;5113958;28;20203;-63
2021/12/16 05:46:13;;;;;;;1.10;1.00;;;15.30;29.30;;;;;;5114179;28;20206;-63
2021/12/16 05:48:42;;;;;;;0.80;0.80;;;15.30;29.30;;;;;;5115159;28;20257;-63
2021/12/16 05:51:13;;;;;;;1.30;0.93;;;15.20;29.30;;;;;;5114249;28;20399;-62
2021/12/16 05:53:44;;;;;;;1.02;1.02;;;15.20;29.30;;;;;;5116586;28;20216;-62
2021/12/16 05:56:12;;;;;;;1.45;1.00;;;15.20;29.30;;;;;;5117762;28;20206;-63
2021/12/16 05:58:39;;;;;;;1.20;1.10;;;15.20;29.30;;;;;;5116981;28;20218;-63
2021/12/16 06:01:10;;;;;;;0.75;0.75;;;15.20;29.30;;;;;;5117675;28;20578;-62
2021/12/16 06:03:39;;;;;;;0.90;0.90;;;15.20;29.30;;;;;;5119051;28;20202;-63
2021/12/16 06:06:07;;;;;;;1.00;1.00;;;15.20;29.30;;;;;;5117827;28;20235;-63
2021/12/16 06:08:35;;;;;;;0.85;0.85;;;15.20;29.20;;;;;;5117573;28;20222;-63
2021/12/16 06:14:04;;;;;;;0.90;0.90;;;15.20;29.30;;;;;;5111839;28;20252;-63
2021/12/16 06:27:34;;;;;;;1.27;1.17;;;15.20;29.30;;;;;;5115812;28;20275;-63
2021/12/16 06:30:03;;;;;;;1.10;1.00;;;15.10;29.20;;;;;;5115837;28;20477;-63
2021/12/16 06:32:31;;;;;;;1.13;1.02;;;15.10;29.20;;;;;;5116353;28;20211;-63
2021/12/16 06:34:58;;;;;;;1.20;1.10;;;15.10;29.20;;;;;;5116075;28;20207;-62
2021/12/16 06:37:26;;;;;;;0.95;0.95;;;15.10;29.20;;;;;;5116242;28;20501;-63
2021/12/16 06:39:53;;;;;;;0.90;0.90;;;15.10;29.20;;;;;;5115979;27;20199;-63
2021/12/16 06:42:21;;;;;;;1.10;1.10;;;15.10;29.20;;;;;;5115426;28;20260;-62
2021/12/16 06:44:53;;;;;;;1.20;1.10;;;15.10;29.20;;;;;;5116600;28;20202;-63
2021/12/16 06:47:26;;;;;;;1.10;1.08;;;15.10;29.30;;;;;;5116407;28;20509;-63
2021/12/16 06:49:55;;;;;;;1.23;1.13;;;15.10;29.20;;;;;;5116673;28;20570;-64
2021/12/16 06:52:28;;;;;;;1.20;1.10;;;15.10;29.30;;;;;;5116530;27;20203;-63
2021/12/16 06:57:44;;;;;;;1.10;1.10;;;15.10;29.20;;;;;;5115167;28;20368;-64
2021/12/16 07:00:21;;;;;;;0.93;0.93;;;15.10;29.20;;;;;;5115954;28;20356;-62
2021/12/16 07:02:59;;;;;;;1.10;1.10;;;15.10;29.20;;;;;;5116150;28;20535;-63
2021/12/16 07:05:30;;;;;;;1.30;1.20;;;15.10;29.20;;;;;;5116176;28;20221;-63
2021/12/16 07:07:58;;;;;;;1.35;1.25;;;15.10;29.20;;;;;;5116424;28;20614;-63
2021/12/16 07:10:26;;;;;;;1.20;1.10;;;15.10;29.30;;;;;;5115762;28;20202;-64
2021/12/16 07:12:55;;;;;;;1.23;1.13;;;15.10;29.20;;;;;;5116603;28;20203;-63
2021/12/16 07:15:29;;;;;;;1.27;1.17;;;15.10;29.30;;;;;;5116279;28;20618;-63
2021/12/16 07:17:57;;;;;;;1.25;1.15;;;15.00;29.20;;;;;;5116442;28;20211;-64
2021/12/16 07:20:29;;;;;;;1.30;1.20;;;15.00;29.20;;;;;;5116883;28;20575;-63
2021/12/16 07:22:57;;;;;;;1.25;1.17;;;15.00;29.20;;;;;;5115947;28;20606;-63
2021/12/16 07:25:27;;;;;;;1.40;1.30;;;15.00;29.80;;;;;;5116886;28;20479;-62
2021/12/16 07:27:55;;;;;;;1.50;1.40;;;15.00;29.20;;;;;;5116613;28;20333;-63
2021/12/16 07:30:24;;;;;;;1.30;1.20;;;15.00;29.20;;;;;;5115534;28;20213;-62
2021/12/16 07:32:52;;;;;;;1.50;1.40;;;15.00;29.20;;;;;;5116762;28;20214;-63
2021/12/16 07:35:22;;;;;;;1.20;1.10;;;15.00;29.30;;;;;;5115974;28;20210;-63
2021/12/16 07:37:50;;;;;;;1.27;1.20;;;15.00;29.20;;;;;;5116708;28;20501;-63
2021/12/16 07:40:22;;;;;;;1.70;1.30;;;15.00;29.20;;;;;;5115986;28;20215;-63
2021/12/16 07:43:10;;;;;;;1.45;1.33;;;15.00;29.20;;;;;;5116380;28;20529;-63
2021/12/16 07:45:42;;;;;;;1.40;1.30;;;15.00;29.30;;;;;;5117636;27;20202;-63
2021/12/16 07:48:11;;;;;;;1.42;1.33;;;15.00;29.20;;;;;;5136413;27;20275;-63
2021/12/16 07:50:40;;;;;;;1.30;1.20;;;15.00;29.30;;;;;;5136540;27;20213;-64
2021/12/16 07:53:07;;;;;;;1.08;1.05;;;15.00;29.30;;;;;;5135907;27;20605;-63
2021/12/16 07:55:35;;;;;;;1.45;1.35;;;15.00;29.40;;;;;;5137393;27;20202;-64
2021/12/16 07:58:02;;;;;;;1.58;1.48;;;14.90;29.20;;;;;;5137001;27;20198;-63
2021/12/16 08:00:33;;;;;;;1.40;1.30;;;14.90;29.30;;;;;;5136781;27;20569;-63
2021/12/16 08:03:03;;;;;;;1.50;1.40;;;14.90;29.30;;;;;;5135012;27;20455;-63
2021/12/16 08:05:33;;;;;;;1.40;1.30;;;14.90;29.20;;;;;;5135850;27;20454;-63
2021/12/16 08:08:00;;;;;;;1.60;1.50;;;14.90;29.30;;;;;;5135945;27;20786;-63
2021/12/16 08:10:28;;;;;;;1.80;1.27;;;14.90;29.30;;;;;;5137417;27;20202;-64
2021/12/16 08:12:55;;;;;;;1.40;1.30;;;14.90;29.30;;;;;;5136882;27;20202;-63
2021/12/16 08:15:23;;;;;;;1.50;1.40;;;14.90;29.30;;;;;;5136933;27;20202;-63
2021/12/16 08:17:50;;;;;;;1.50;1.40;;;14.90;29.30;;;;;;5137178;27;20209;-64
2021/12/16 08:20:19;;;;;;;1.48;1.38;;;14.90;29.30;;;;;;5136456;27;20217;-63
2021/12/16 08:22:48;;;;;;;1.50;1.40;;;14.90;29.40;;;;;;5137448;27;20213;-64
2021/12/16 08:25:17;;;;;;;1.20;1.10;;;14.90;29.30;;;;;;5137194;27;20208;-63
2021/12/16 08:27:45;;;;;;;1.30;1.20;;;14.90;29.40;;;;;;5137290;27;20211;-64
2021/12/16 08:30:15;;;;;;;1.30;1.20;;;14.90;29.30;;;;;;5135615;27;20194;-64
2021/12/16 08:32:43;;;;;;;1.33;1.23;;;14.80;29.30;;;;;;5136892;27;20202;-64
2021/12/16 08:35:11;;;;;;;1.20;1.17;;;14.90;29.30;;;;;;5137202;27;20681;-63
2021/12/16 08:37:40;;;;;;;1.73;1.40;;;14.80;29.30;;;;;;5136519;27;20213;-63
2021/12/16 08:40:12;;;;;;;1.40;1.30;;;14.90;29.30;;;;;;5137813;27;20278;-63
2021/12/16 08:42:39;;;;;;;1.60;1.50;;;14.80;29.30;;;;;;5136874;27;20209;-63
2021/12/16 08:45:09;;;;;;;1.58;1.48;;;14.80;29.30;;;;;;5135748;27;20213;-63
2021/12/16 08:47:36;;;;;;;2.33;1.48;;;14.80;29.30;;;;;;5136367;27;20251;-63
2021/12/16 08:50:05;;;;;;;1.52;1.42;;;14.80;29.30;;;;;;5135472;27;20204;-63
2021/12/16 08:52:32;;;;;;;1.60;1.40;;;14.80;29.30;;;;;;5135254;27;20202;-63
2021/12/16 08:55:01;;;;;;;1.50;1.40;;;14.80;29.30;;;;;;5135177;27;20202;-63
2021/12/16 08:57:29;;;;;;;1.60;1.50;;;14.80;29.30;;;;;;5134621;27;20186;-63
2021/12/16 08:59:56;;;;;;;1.55;1.45;;;14.80;29.30;;;;;;5134061;27;20198;-63
2021/12/16 09:02:24;;;;;;;1.80;1.60;;;14.80;29.40;;;;;;5134044;27;20198;-64
2021/12/16 09:04:52;;;;;;;2.17;1.60;;;14.80;29.40;;;;;;5133673;27;20277;-63
2021/12/16 09:07:19;;;;;;;1.63;1.52;;;14.80;29.40;;;;;;5133497;28;20249;-63
2021/12/16 09:09:47;;;;;;;2.92;2.03;;;14.80;29.40;;;;;;5134459;28;20222;-63
2021/12/16 09:12:48;;;;;;;1.95;1.55;;;14.80;29.40;;;;;;5133712;28;20202;-63
2021/12/16 09:15:14;;;;;;;2.58;1.70;;;14.70;29.30;;;;;;5134284;28;20818;-63
2021/12/16 09:17:41;;;;;;;5.13;1.92;;;14.70;29.50;;;;;;5134769;28;20201;-63
2021/12/16 09:20:10;;;;;;;3.03;1.67;;;14.70;29.60;;;;;;5134227;28;20205;-63
2021/12/16 09:22:38;;;;;;;2.38;1.92;;;14.80;29.70;;;;;;5134408;28;20224;-63
2021/12/16 09:25:06;;;;;;;4.63;2.00;;;14.70;29.60;;;;;;5133353;27;20227;-64
2021/12/16 09:27:34;;;;;;;2.40;1.98;;;14.70;29.50;;;;;;5134570;27;20194;-63
2021/12/16 09:30:04;;;;;;;4.30;1.80;;;14.70;29.60;;;;;;5138621;27;20245;-63
2021/12/16 09:32:32;;;;;;;3.15;1.70;;;14.80;29.60;;;;;;5137913;27;20213;-63
2021/12/16 09:35:00;;;;;;;2.08;1.80;;;14.70;29.60;;;;;;5137584;27;20202;-63
2021/12/16 09:37:28;;;;;;;2.08;1.83;;;14.80;29.70;;;;;;5138819;27;20585;-63
2021/12/16 09:39:55;;;;;;;2.55;2.20;;;14.70;29.60;;;;;;5137850;27;20241;-63
2021/12/16 09:42:24;;;;;;;2.35;1.98;;;14.80;29.80;;;;;;5137955;27;20209;-63
2021/12/16 09:44:54;;;;;;;2.75;2.13;;;14.80;29.80;;;;;;5137702;27;20209;-63
2021/12/16 09:47:23;;;;;;;1.77;1.60;;;14.70;29.80;;;;;;5138704;27;20255;-63
2021/12/16 09:49:50;;;;;;;2.30;2.10;;;14.80;29.80;;;;;;5137568;27;20225;-64
2021/12/16 09:52:18;;;;;;;3.25;1.95;;;14.80;29.90;;;;;;5136329;27;20202;-64
2021/12/16 09:54:46;;;;;;;2.83;1.95;;;14.80;29.80;;;;;;5136623;27;20206;-64
2021/12/16 09:57:14;;;;;;;2.10;1.90;;;14.80;29.90;;;;;;5137641;27;20210;-63
2021/12/16 09:59:42;;;;;;;3.42;2.00;;;14.80;29.90;;;;;;5138398;27;20224;-63
2021/12/16 10:02:14;;;;;;;2.17;2.00;;;14.80;29.90;;;;;;5137599;27;20213;-63
2021/12/16 10:04:43;;;;;;;3.03;2.10;;;14.80;29.90;;;;;;5137272;27;20214;-63
2021/12/16 10:07:14;;;;;;;15.25;13.77;;;14.80;30.00;;;;;;5137615;27;20249;-63
2021/12/16 10:09:43;;;;;;;30.48;27.40;;;14.80;30.00;;;;;;5137859;27;20675;-63
2021/12/16 10:12:15;;;;;;;26.30;22.75;;;14.80;30.00;;;;;;5137488;27;20214;-63
2021/12/16 10:15:04;;;;;;;21.42;19.13;;;14.80;30.00;;;;;;5138068;27;20206;-63
2021/12/16 10:17:35;;;;;;;18.95;16.95;;;14.80;30.00;;;;;;5137103;27;20203;-64
2021/12/16 10:20:09;;;;;;;19.25;15.40;;;14.80;30.10;;;;;;5137343;27;20650;-63
2021/12/16 10:22:40;;;;;;;16.67;14.88;;;14.80;30.30;;;;;;5137640;27;20471;-63
2021/12/16 10:25:24;;;;;;;15.82;14.23;;;14.80;30.50;;;;;;5137653;27;20301;-64
2021/12/16 10:28:00;;;;;;;15.05;13.45;;;14.90;30.60;;;;;;5137196;27;20245;-64
2021/12/16 10:30:45;;;;;;;13.13;11.73;;;14.90;30.80;;;;;;5136445;27;20232;-63
2021/12/16 10:33:22;;;;;;;13.10;11.70;;;14.90;31.00;;;;;;5136852;27;20202;-64
2021/12/16 10:35:50;;;;;;;12.35;10.73;;;14.90;31.10;;;;;;5137324;27;20217;-64
2021/12/16 10:38:21;;;;;;;12.90;11.43;;;14.90;31.30;;;;;;5136390;27;20202;-64
2021/12/16 10:40:50;;;;;;;11.30;10.20;;;15.00;31.60;;;;;;5136013;27;20585;-63
2021/12/16 10:43:27;;;;;;;11.65;9.48;;;15.00;31.60;;;;;;5135784;27;20217;-63
2021/12/16 10:45:57;;;;;;;11.43;9.52;;;15.00;31.60;;;;;;5136734;27;20573;-63
2021/12/16 10:48:29;;;;;;;9.43;8.48;;;15.10;31.70;;;;;;5136883;27;20213;-63
2021/12/16 10:51:05;;;;;;;10.23;8.43;;;15.10;31.80;;;;;;5137104;27;20198;-63
2021/12/16 10:54:17;;;;;;;9.93;8.32;;;15.10;31.80;;;;;;5136841;27;20202;-63
2021/12/16 10:56:53;;;;;;;7.93;7.15;;;15.10;31.60;;;;;;5136886;27;20214;-64
2021/12/16 10:59:25;;;;;;;8.38;6.63;;;15.10;31.80;;;;;;5137204;27;20198;-63
2021/12/16 11:02:04;;;;;;;7.63;6.60;;;15.10;31.80;;;;;;5137133;27;20202;-63
2021/12/16 11:04:42;;;;;;;7.80;7.00;;;15.10;31.80;;;;;;5137104;27;20695;-63
2021/12/16 11:07:15;;;;;;;7.82;6.50;;;15.20;31.80;;;;;;5135001;27;20222;-63
2021/12/16 11:10:01;;;;;;;7.95;6.57;;;15.20;31.90;;;;;;5137026;27;20222;-63
2021/12/16 11:12:53;;;;;;;7.05;5.80;;;15.20;31.80;;;;;;5136580;27;20587;-63
2021/12/16 11:15:27;;;;;;;7.32;5.93;;;15.20;31.50;;;;;;5135943;27;20210;-63
2021/12/16 11:17:57;;;;;;;6.68;5.70;;;15.20;31.60;;;;;;5135177;27;20252;-63
2021/12/16 11:20:34;;;;;;;6.30;5.70;;;15.20;31.60;;;;;;5134519;27;20507;-63
2021/12/16 11:23:05;;;;;;;5.88;5.28;;;15.20;31.60;;;;;;5136640;27;20209;-63
2021/12/16 11:25:34;;;;;;;18.10;15.70;;;15.30;31.70;;;;;;5135032;27;20206;-62
2021/12/16 11:28:15;;;;;;;18.00;15.20;;;15.30;31.60;;;;;;5135125;27;20221;-63
2021/12/16 11:30:49;;;;;;;17.27;15.48;;;15.30;31.60;;;;;;5135328;27;20225;-64
2021/12/16 11:33:21;;;;;;;20.25;15.90;;;15.30;31.60;;;;;;5135418;27;20209;-64
2021/12/16 11:35:56;;;;;;;16.58;14.82;;;15.30;31.40;;;;;;5134892;27;20204;-63
2021/12/16 11:38:28;;;;;;;15.15;13.55;;;15.30;31.50;;;;;;5135079;27;20845;-63
2021/12/16 11:41:22;;;;;;;15.13;13.52;;;15.30;31.40;;;;;;5134978;27;20198;-63
2021/12/16 11:44:06;;;;;;;13.80;12.35;;;15.30;31.40;;;;;;5135720;27;20210;-63
2021/12/16 11:46:37;;;;;;;13.63;11.75;;;15.30;31.50;;;;;;5135145;27;20618;-63
2021/12/16 11:49:08;;;;;;;14.35;12.18;;;15.30;31.60;;;;;;5099517;27;20266;-63
2021/12/16 11:51:40;;;;;;;12.63;11.00;;;15.40;31.90;;;;;;5076123;28;20204;-63
2021/12/16 11:54:20;;;;;;;12.02;10.82;;;15.40;31.90;;;;;;5073422;28;20208;-63
2021/12/16 11:56:52;;;;;;;11.63;10.43;;;15.40;32.00;;;;;;5073189;28;20215;-63
2021/12/16 11:59:29;;;;;;;11.45;9.48;;;15.40;32.10;;;;;;5073231;28;20204;-63
2021/12/16 12:01:56;;;;;;;10.65;9.63;;;15.40;32.10;;;;;;5073339;28;20204;-63
2021/12/16 12:04:33;;;;;;;9.90;8.95;;;15.50;32.30;;;;;;5073837;28;20226;-63
2021/12/16 12:07:10;;;;;;;9.70;8.75;;;15.50;32.40;;;;;;5072810;28;20243;-63
2021/12/16 12:09:40;;;;;;;9.25;8.07;;;15.50;32.40;;;;;;5070971;28;20223;-63
2021/12/16 12:12:08;;;;;;;8.77;7.85;;;15.60;32.50;;;;;;5072266;28;20196;-63
2021/12/16 12:14:37;;;;;;;8.07;7.38;;;15.60;32.50;;;;;;5072166;28;20638;-63
2021/12/16 12:17:07;;;;;;;8.43;7.53;;;15.60;32.40;;;;;;5073200;28;20622;-64
2021/12/16 12:19:40;;;;;;;9.50;7.90;;;15.60;32.40;;;;;;5067587;28;20235;-64
2021/12/16 12:22:09;;;;;;;12.38;7.95;;;15.70;32.50;;;;;;5092987;28;20203;-64
2021/12/16 12:24:40;;;;;;;13.82;9.20;;;15.70;32.50;;;;;;5094000;28;20214;-63
2021/12/16 12:27:11;;;;;;;17.45;10.55;;;15.70;32.50;;;;;;5093248;28;20219;-63
2021/12/16 12:29:40;;;;;;;17.38;10.18;;;15.70;32.50;;;;;;5093580;28;20486;-63
2021/12/16 12:32:11;;;;;;;22.02;10.68;;;15.70;32.40;;;;;;5093820;28;20674;-63
2021/12/16 12:34:42;;;;;;;36.92;29.63;;;15.80;32.40;;;;;;5093309;28;20207;-63
2021/12/16 12:37:13;;;;;;;31.02;23.42;;;15.80;32.40;;;;;;5094128;28;20227;-63
2021/12/16 12:39:43;;;;;;;30.15;20.55;;;15.70;32.30;;;;;;5093406;28;20203;-63
2021/12/16 12:42:14;;;;;;;32.67;21.40;;;15.70;32.20;;;;;;5093525;28;20211;-63
2021/12/16 12:44:42;;;;;;;30.33;20.25;;;15.80;32.20;;;;;;5093054;28;20823;-63
2021/12/16 12:47:14;;;;;;;32.67;18.88;;;15.80;32.20;;;;;;5092173;28;20207;-63
2021/12/16 12:49:42;;;;;;;29.00;19.13;;;15.80;32.20;;;;;;5092015;28;20224;-64
2021/12/16 12:52:13;;;;;;;25.30;17.83;;;15.80;32.20;;;;;;5093108;28;20211;-64
2021/12/16 12:54:43;;;;;;;30.02;18.17;;;15.90;32.30;;;;;;5092771;28;20208;-64
2021/12/16 12:57:24;;;;;;;30.00;18.23;;;15.90;32.30;;;;;;5092599;28;20613;-63
2021/12/16 12:59:51;;;;;;;27.50;16.73;;;15.90;32.10;;;;;;5092178;28;20203;-63
2021/12/16 13:02:20;;;;;;;25.55;17.30;;;15.90;32.20;;;;;;5093445;28;20606;-63
2021/12/16 13:04:52;;;;;;;26.65;16.33;;;15.90;32.10;;;;;;5092063;28;20580;-63
2021/12/16 13:07:31;;;;;;;24.67;16.02;;;15.90;32.10;;;;;;5090358;28;20242;-63
2021/12/16 13:10:01;;;;;;;22.05;15.13;;;16.00;32.00;;;;;;5078579;28;20396;-64
2021/12/16 13:12:39;;;;;;;23.58;15.68;;;16.00;32.10;;;;;;5090202;28;20204;-63
2021/12/16 13:15:22;;;;;;;24.10;14.63;;;16.00;32.00;;;;;;5089402;28;20239;-62
2021/12/16 13:24:15;;;;;;;20.75;12.73;;;16.00;31.80;;;;;;5090115;28;20195;-63
2021/12/16 13:26:49;;;;;;;19.25;12.52;;;16.00;31.80;;;;;;5089339;28;20491;-63
2021/12/16 13:29:30;;;;;;;19.67;12.27;;;16.00;31.80;;;;;;5090713;28;20207;-63
2021/12/16 13:32:09;;;;;;;17.20;12.00;;;16.00;31.60;;;;;;5090154;28;20238;-63
2021/12/16 13:34:53;;;;;;;16.98;11.40;;;16.00;31.60;;;;;;5088883;28;20305;-63
2021/12/16 13:37:24;;;;;;;17.33;11.38;;;16.10;31.60;;;;;;5089635;28;20203;-63
2021/12/16 13:39:59;;;;;;;16.05;11.30;;;16.10;31.70;;;;;;5088037;28;20477;-64
2021/12/16 13:42:39;;;;;;;18.50;11.30;;;16.00;31.50;;;;;;5089692;28;20222;-63
2021/12/16 13:45:13;;;;;;;15.23;10.73;;;16.10;31.50;;;;;;5089540;28;20436;-63
2021/12/16 13:47:53;;;;;;;16.52;10.88;;;16.10;31.40;;;;;;5090082;28;20208;-63
2021/12/16 14:02:50;;;;;;;12.63;8.75;;;16.10;31.40;;;;;;5049808;28;20197;-64
2021/12/16 14:05:23;;;;;;;11.25;8.90;;;16.10;31.30;;;;;;5050116;28;20294;-63
2021/12/16 14:07:57;;;;;;;12.02;8.10;;;16.10;31.30;;;;;;5048733;28;20252;-63
2021/12/16 14:10:39;;;;;;;11.65;7.80;;;16.10;31.30;;;;;;5048409;28;20445;-63
2021/12/16 14:16:35;;;;;;;10.32;8.23;;;16.10;31.20;;;;;;5009936;28;20232;-63
2021/12/16 14:25:13;;;;;;;9.70;7.10;;;16.10;31.20;;;;;;5092377;28;20215;-63
2021/12/16 14:39:03;;;;;;;7.20;5.60;;;16.10;31.10;;;;;;5069278;28;20407;-63
2021/12/16 14:41:45;;;;;;;7.97;5.45;;;16.10;31.10;;;;;;5091886;28;20211;-63
2021/12/16 14:47:17;;;;;;;7.20;5.40;;;16.10;31.10;;;;;;5037458;28;20373;-63
2021/12/16 14:49:47;;;;;;;8.43;5.80;;;16.10;31.10;;;;;;5075214;28;20232;-63
2021/12/16 14:52:16;;;;;;;6.85;5.38;;;16.10;31.10;;;;;;5075252;28;20213;-63
2021/12/16 14:54:52;;;;;;;6.28;5.53;;;16.10;31.00;;;;;;5074909;28;20212;-63
2021/12/16 14:57:28;;;;;;;6.53;5.18;;;16.10;31.00;;;;;;5075455;28;20204;-63
2021/12/16 14:59:56;;;;;;;5.53;5.03;;;16.10;31.00;;;;;;5074434;28;20204;-63
2021/12/16 15:02:31;;;;;;;7.03;5.10;;;16.10;31.10;;;;;;5074199;28;20287;-63
2021/12/16 15:04:58;;;;;;;6.45;5.13;;;16.00;31.80;;;;;;5074540;28;20204;-64
2021/12/16 15:07:28;;;;;;;7.03;4.72;;;16.10;31.00;;;;;;5074653;28;20774;-63
2021/12/16 15:09:59;;;;;;;6.13;5.20;;;16.00;30.90;;;;;;5074447;28;20239;-63
2021/12/16 15:12:35;;;;;;;5.80;4.95;;;16.10;31.00;;;;;;5072917;28;20766;-64
2021/12/16 15:15:17;;;;;;;5.07;4.47;;;16.10;31.00;;;;;;5051113;28;20200;-63
2021/12/16 15:37:31;;;;;;;8.93;5.70;;;16.00;30.80;;;;;;5037689;28;20526;-64
2021/12/16 15:40:13;;;;;;;11.27;5.70;;;16.00;30.90;;;;;;5054065;28;20201;-63
2021/12/16 15:42:51;;;;;;;9.50;5.40;;;16.00;30.90;;;;;;5054044;28;20271;-63
2021/12/16 15:45:23;;;;;;;12.27;5.45;;;15.90;30.80;;;;;;5053423;28;20207;-64
2021/12/16 15:47:54;;;;;;;10.07;4.88;;;15.90;30.80;;;;;;5053989;28;20243;-64
2021/12/16 15:50:26;;;;;;;7.82;4.95;;;16.00;30.90;;;;;;5053734;28;20231;-63
2021/12/16 15:52:55;;;;;;;9.10;4.93;;;16.00;30.90;;;;;;5053525;28;20653;-63
2021/12/16 15:55:28;;;;;;;10.10;5.18;;;15.90;30.80;;;;;;5053815;28;20205;-64
2021/12/16 15:58:04;;;;;;;5.85;4.30;;;15.90;30.80;;;;;;5054175;28;20300;-64
2021/12/16 16:00:32;;;;;;;8.00;4.80;;;15.90;30.90;;;;;;5054013;28;20211;-64
2021/12/16 16:03:01;;;;;;;8.05;3.95;;;15.90;30.80;;;;;;5054290;28;20205;-63
2021/12/16 16:05:35;;;;;;;6.20;4.15;;;15.90;30.90;;;;;;5053605;28;20205;-64